Stanwood, Michigan
Current Conditions -  °F | °C
As of 12:15 PM on Friday 31 Oct 2014 (Local Time) from KRQB Reporting Station
Light Snow Light Snow  
Wind Chill: 23°   Ceiling: 800
Heat Index: 33°   Visibility: 0.75mi
Dew Point: 33°   Wind: 16mph
Humidity: 100%   Direction: 10°N
Pressure: 30.04"   Gusts: 25mph
Location:  43.58°N, 85.45°W
Report Text: KRQB 311615Z AUTO 01014G22KT 3/4SM -SN OVC008 01/01 A3004 RMK AO2 T00070007
Loading
Personal Weather Stations






























Interactive Weather Map New forecast layout! Learn more

10-Day Weather Forecast

Advertisements
Track Severe Weather on mobile